createdAt,value
2022-09-15T00:01:18.371Z,12.90
2022-09-15T00:03:51.223Z,12.70
2022-09-15T00:06:22.807Z,12.80
2022-09-15T00:08:54.614Z,11.80
2022-09-15T00:11:27.741Z,10.80
2022-09-15T00:14:00.899Z,12.80
2022-09-15T00:16:33.595Z,13.70
2022-09-15T00:19:05.787Z,12.80
2022-09-15T00:21:39.870Z,12.40
2022-09-15T00:24:11.474Z,11.90
2022-09-15T00:26:43.079Z,12.50
2022-09-15T00:29:15.456Z,12.70
2022-09-15T00:31:46.995Z,13.10
2022-09-15T00:34:18.461Z,12.90
2022-09-15T00:36:50.124Z,12.20
2022-09-15T00:39:21.728Z,12.40
2022-09-15T00:41:53.236Z,12.10
2022-09-15T00:44:53.672Z,11.50
2022-09-15T00:47:28.321Z,11.40
2022-09-15T00:50:04.205Z,12.40
2022-09-15T00:52:41.043Z,12.00
2022-09-15T00:55:17.724Z,12.30
2022-09-15T00:57:53.468Z,12.30
2022-09-15T01:00:27.615Z,13.60
2022-09-15T01:03:00.047Z,13.10
2022-09-15T01:05:37.314Z,13.00
2022-09-15T01:08:12.532Z,13.10
2022-09-15T01:10:46.586Z,12.50
2022-09-15T01:13:18.091Z,14.10
2022-09-15T01:16:01.602Z,14.30
2022-09-15T01:18:41.738Z,15.50
2022-09-15T01:21:24.567Z,13.90
2022-09-15T01:24:43.994Z,13.30
2022-09-15T01:27:52.823Z,12.30
2022-09-15T01:30:24.734Z,13.60
2022-09-15T01:33:23.227Z,14.40
2022-09-15T01:36:04.360Z,13.40
2022-09-15T01:38:45.037Z,13.20
2022-09-15T01:41:19.609Z,13.40
2022-09-15T01:43:56.780Z,12.70
2022-09-15T01:46:31.554Z,13.10
2022-09-15T01:49:04.983Z,14.30
2022-09-15T01:51:37.695Z,12.20
2022-09-15T01:54:12.268Z,12.10
2022-09-15T01:56:45.233Z,12.80
2022-09-15T01:59:17.123Z,13.20
2022-09-15T02:01:52.793Z,14.50
2022-09-15T02:04:31.588Z,14.20
2022-09-15T02:07:11.957Z,13.30
2022-09-15T02:09:52.138Z,13.30
2022-09-15T02:12:34.273Z,12.40
2022-09-15T02:15:10.709Z,14.00
2022-09-15T02:17:47.229Z,13.00
2022-09-15T02:20:23.690Z,13.20
2022-09-15T02:23:01.874Z,13.10
2022-09-15T02:25:39.379Z,13.50
2022-09-15T02:28:15.067Z,15.20
2022-09-15T02:30:48.525Z,16.00
2022-09-15T02:33:24.549Z,15.70
2022-09-15T02:35:56.754Z,14.30
2022-09-15T02:38:31.521Z,13.40
2022-09-15T02:41:03.740Z,12.60
2022-09-15T02:43:35.327Z,13.40
2022-09-15T02:46:07.165Z,17.60
2022-09-15T02:48:39.362Z,15.30
2022-09-15T02:51:11.111Z,14.20
2022-09-15T02:53:44.555Z,13.30
2022-09-15T02:56:18.236Z,13.40
2022-09-15T02:58:49.808Z,15.40
2022-09-15T03:01:21.515Z,16.30
2022-09-15T03:03:53.187Z,15.50
2022-09-15T03:06:27.912Z,14.30
2022-09-15T03:09:00.285Z,15.00
2022-09-15T03:11:32.681Z,16.10
2022-09-15T03:14:06.751Z,15.80
2022-09-15T03:16:38.411Z,17.00
2022-09-15T03:19:10.010Z,20.00
2022-09-15T03:21:41.554Z,18.90
2022-09-15T03:24:15.310Z,16.90
2022-09-15T03:26:46.907Z,9.70
2022-09-15T03:29:18.432Z,7.90
2022-09-15T03:31:50.054Z,5.50
2022-09-15T03:34:21.886Z,4.70
2022-09-15T03:36:53.477Z,4.00
2022-09-15T03:39:25.025Z,4.00
2022-09-15T03:41:56.693Z,3.90
2022-09-15T03:44:28.329Z,4.20
2022-09-15T03:46:59.920Z,3.80
2022-09-15T03:49:31.619Z,3.80
2022-09-15T03:52:04.879Z,3.60
2022-09-15T03:54:36.461Z,3.70
2022-09-15T03:57:08.174Z,3.50
2022-09-15T03:59:39.685Z,3.90
2022-09-15T04:02:11.328Z,3.90
2022-09-15T04:04:43.124Z,3.50
2022-09-15T04:07:14.711Z,3.50
2022-09-15T04:09:46.427Z,3.00
2022-09-15T04:12:18.180Z,2.80
2022-09-15T04:14:49.800Z,2.80
2022-09-15T04:17:22.074Z,2.80
2022-09-15T04:19:53.572Z,2.80
2022-09-15T04:22:25.284Z,2.80
2022-09-15T04:24:56.775Z,2.40
2022-09-15T04:27:28.983Z,2.40
2022-09-15T04:30:00.546Z,3.00
2022-09-15T04:32:32.450Z,3.20
2022-09-15T04:35:04.824Z,2.70
2022-09-15T04:37:36.374Z,2.90
2022-09-15T04:40:12.095Z,2.50
2022-09-15T04:42:43.681Z,2.80
2022-09-15T04:45:15.192Z,2.40
2022-09-15T04:47:48.436Z,2.70
2022-09-15T04:50:20.025Z,2.60
2022-09-15T04:52:52.117Z,2.60
2022-09-15T04:55:23.716Z,2.60
2022-09-15T04:57:56.312Z,2.50
2022-09-15T05:00:27.846Z,2.80
2022-09-15T05:03:00.861Z,2.60
2022-09-15T05:05:34.661Z,2.80
2022-09-15T05:08:06.780Z,2.30
2022-09-15T05:10:39.142Z,2.20
2022-09-15T05:13:10.630Z,2.50
2022-09-15T05:15:42.151Z,2.70
2022-09-15T05:18:13.903Z,2.40
2022-09-15T05:20:45.329Z,2.50
2022-09-15T05:23:16.782Z,2.10
2022-09-15T05:25:56.972Z,2.20
2022-09-15T05:28:29.257Z,2.70
2022-09-15T05:31:00.782Z,4.70
2022-09-15T05:33:32.528Z,2.70
2022-09-15T05:36:05.047Z,1.50
2022-09-15T05:38:38.765Z,1.50
2022-09-15T05:41:11.606Z,1.40
2022-09-15T05:43:43.043Z,1.40
2022-09-15T05:48:45.811Z,1.40
2022-09-15T05:51:17.324Z,1.30
2022-09-15T05:53:48.969Z,1.40
2022-09-15T05:56:20.965Z,1.50
2022-09-15T05:58:52.549Z,1.50
2022-09-15T06:01:26.647Z,1.40
2022-09-15T06:03:59.406Z,1.50
2022-09-15T06:06:33.380Z,1.40
2022-09-15T06:09:07.736Z,1.50
2022-09-15T06:11:42.757Z,1.60
2022-09-15T06:14:17.119Z,1.80
2022-09-15T06:16:50.327Z,1.70
2022-09-15T06:19:22.772Z,1.40
2022-09-15T06:21:55.311Z,1.50
2022-09-15T06:24:28.690Z,1.30
2022-09-15T06:29:41.514Z,1.60
2022-09-15T06:32:13.834Z,3.50
2022-09-15T06:34:46.128Z,4.00
2022-09-15T06:37:17.991Z,2.90
2022-09-15T06:39:49.772Z,3.60
2022-09-15T06:42:22.423Z,3.10
2022-09-15T06:44:54.014Z,4.60
2022-09-15T06:47:25.723Z,2.60
2022-09-15T06:49:57.291Z,2.00
2022-09-15T06:52:28.790Z,1.50
2022-09-15T06:55:00.365Z,1.30
2022-09-15T06:57:31.893Z,1.40
2022-09-15T07:00:05.709Z,1.60
2022-09-15T07:02:37.599Z,1.50
2022-09-15T07:05:10.857Z,1.60
2022-09-15T07:07:42.488Z,1.40
2022-09-15T07:10:14.091Z,1.40
2022-09-15T07:12:46.158Z,1.60
2022-09-15T07:15:17.861Z,2.20
2022-09-15T07:17:49.335Z,2.40
2022-09-15T07:20:20.871Z,2.70
2022-09-15T07:22:52.330Z,2.40
2022-09-15T07:25:23.783Z,2.80
2022-09-15T07:27:55.416Z,3.40
2022-09-15T07:30:26.912Z,2.80
2022-09-15T07:32:58.338Z,2.90
2022-09-15T07:35:29.840Z,2.30
2022-09-15T07:38:02.093Z,2.20
2022-09-15T07:40:34.463Z,2.40
2022-09-15T07:43:06.195Z,2.60
2022-09-15T07:45:38.410Z,2.20
2022-09-15T07:48:10.149Z,2.30
2022-09-15T07:50:41.637Z,2.40
2022-09-15T07:53:13.074Z,2.20
2022-09-15T07:55:44.526Z,2.30
2022-09-15T07:58:15.950Z,2.40
2022-09-15T08:00:47.851Z,2.30
2022-09-15T08:03:19.648Z,2.10
2022-09-15T08:05:51.164Z,2.20
2022-09-15T08:08:22.615Z,2.60
2022-09-15T08:10:54.142Z,2.50
2022-09-15T08:13:25.631Z,3.00
2022-09-15T08:15:57.178Z,2.80
2022-09-15T08:18:28.937Z,2.70
2022-09-15T08:21:00.438Z,2.30
2022-09-15T08:23:31.862Z,3.20
2022-09-15T08:26:03.579Z,3.60
2022-09-15T08:28:35.110Z,4.00
2022-09-15T08:31:08.771Z,3.70
2022-09-15T08:33:45.229Z,2.70
2022-09-15T08:36:17.643Z,2.90
2022-09-15T08:38:49.560Z,3.00
2022-09-15T08:41:25.370Z,3.20
2022-09-15T08:44:02.931Z,3.10
2022-09-15T08:46:40.994Z,2.90
2022-09-15T08:49:30.605Z,3.20
2022-09-15T08:52:12.465Z,3.90
2022-09-15T08:54:44.378Z,3.80
2022-09-15T08:57:20.837Z,4.60
2022-09-15T08:59:54.433Z,4.30
2022-09-15T09:03:04.047Z,4.60
2022-09-15T09:05:47.672Z,4.90
2022-09-15T09:08:46.600Z,5.10
2022-09-15T09:11:26.376Z,5.30
2022-09-15T09:14:08.433Z,4.50
2022-09-15T09:16:59.285Z,3.70
2022-09-15T09:19:52.753Z,4.10
2022-09-15T09:22:28.623Z,4.20
2022-09-15T09:25:11.518Z,3.80
2022-09-15T09:27:54.234Z,3.80
2022-09-15T09:30:28.669Z,3.30
2022-09-15T09:33:13.589Z,3.30
2022-09-15T09:35:48.268Z,3.20
2022-09-15T09:38:22.632Z,3.00
2022-09-15T09:40:57.487Z,3.30
2022-09-15T09:43:32.283Z,3.00
2022-09-15T09:46:03.850Z,2.70
2022-09-15T09:48:37.226Z,2.80
2022-09-15T09:51:32.666Z,2.20
2022-09-15T09:54:21.308Z,2.30
2022-09-15T09:56:54.283Z,2.50
2022-09-15T09:59:36.389Z,2.60
2022-09-15T10:02:17.038Z,2.50
2022-09-15T10:04:50.973Z,2.30
2022-09-15T10:07:25.801Z,1.80
2022-09-15T10:09:59.557Z,2.10
2022-09-15T10:12:34.965Z,2.20
2022-09-15T10:15:20.507Z,2.00
2022-09-15T10:17:52.932Z,2.10
2022-09-15T10:20:32.750Z,1.70
2022-09-15T10:23:28.920Z,2.00
2022-09-15T10:26:22.006Z,2.10
2022-09-15T10:29:14.245Z,2.50
2022-09-15T10:31:46.814Z,2.00
2022-09-15T10:34:32.320Z,2.50
2022-09-15T10:37:15.038Z,2.40
2022-09-15T10:39:54.796Z,2.70
2022-09-15T10:42:38.816Z,2.30
2022-09-15T10:45:23.456Z,2.50
2022-09-15T10:48:11.038Z,2.50
2022-09-15T10:50:54.525Z,2.40
2022-09-15T10:53:44.982Z,2.30
2022-09-15T10:56:26.943Z,2.20
2022-09-15T10:59:20.899Z,2.50
2022-09-15T11:02:04.153Z,2.80
2022-09-15T11:05:00.701Z,2.60
2022-09-15T11:07:42.186Z,2.60
2022-09-15T11:10:23.456Z,2.20
2022-09-15T11:13:04.535Z,2.60
2022-09-15T11:15:54.758Z,2.90
2022-09-15T11:18:51.459Z,2.60
2022-09-15T11:21:30.665Z,2.40
2022-09-15T11:24:21.349Z,2.60
2022-09-15T11:26:58.860Z,2.50
2022-09-15T11:29:35.621Z,2.60
2022-09-15T11:32:17.521Z,2.50
2022-09-15T11:34:57.332Z,2.70
2022-09-15T11:37:36.918Z,2.70
2022-09-15T11:40:18.288Z,2.90
2022-09-15T11:43:00.777Z,3.20
2022-09-15T11:45:41.609Z,3.20
2022-09-15T11:48:19.210Z,3.70
2022-09-15T11:50:55.722Z,4.00
2022-09-15T11:53:35.099Z,4.70
2022-09-15T11:56:16.130Z,4.70
2022-09-15T11:59:02.843Z,5.30
2022-09-15T12:01:42.175Z,5.50
2022-09-15T12:04:19.504Z,5.60
2022-09-15T12:06:57.208Z,5.50
2022-09-15T12:09:29.562Z,5.20
2022-09-15T12:12:08.166Z,5.00
2022-09-15T12:14:44.546Z,5.30
2022-09-15T12:17:26.731Z,5.20
2022-09-15T12:20:04.282Z,5.60
2022-09-15T12:22:42.831Z,4.90
2022-09-15T12:25:20.800Z,4.80
2022-09-15T12:28:23.852Z,4.90
2022-09-15T12:31:18.775Z,5.10
2022-09-15T12:33:56.835Z,5.40
2022-09-15T12:36:38.945Z,6.10
2022-09-15T12:39:37.742Z,5.50
2022-09-15T12:42:20.436Z,6.10
2022-09-15T12:44:59.173Z,6.40
2022-09-15T12:47:35.045Z,8.00
2022-09-15T12:50:26.867Z,9.40
2022-09-15T12:53:02.068Z,9.30
2022-09-15T12:55:37.439Z,9.70
2022-09-15T12:58:18.289Z,9.10
2022-09-15T13:01:14.289Z,9.10
2022-09-15T13:04:29.863Z,9.20
2022-09-15T13:07:39.262Z,10.50
2022-09-15T13:10:36.603Z,11.10
2022-09-15T13:13:21.598Z,9.60
2022-09-15T13:15:56.317Z,8.90
2022-09-15T13:18:33.342Z,8.60
2022-09-15T13:21:11.113Z,8.90
2022-09-15T13:23:48.041Z,8.50
2022-09-15T13:26:24.022Z,8.60
2022-09-15T13:28:56.559Z,9.30
2022-09-15T13:31:39.918Z,7.50
2022-09-15T13:38:12.174Z,8.60
2022-09-15T13:41:24.453Z,10.60
2022-09-15T13:44:32.263Z,7.70
2022-09-15T13:47:16.128Z,8.50
2022-09-15T13:49:52.385Z,9.10
2022-09-15T13:53:05.729Z,9.20
2022-09-15T13:55:39.392Z,9.00
2022-09-15T14:01:08.618Z,8.40
2022-09-15T14:03:44.539Z,7.80
2022-09-15T14:06:18.883Z,8.70
2022-09-15T14:08:57.074Z,8.50
2022-09-15T14:11:32.283Z,9.10
2022-09-15T14:14:07.256Z,8.30
2022-09-15T14:16:39.781Z,7.50
2022-09-15T14:19:33.521Z,7.30
2022-09-15T14:22:26.059Z,8.50
2022-09-15T14:24:59.276Z,7.40
2022-09-15T14:27:33.916Z,8.60
2022-09-15T14:30:12.089Z,6.50
2022-09-15T14:32:52.137Z,7.60
2022-09-15T14:35:26.980Z,6.40
2022-09-15T14:38:00.379Z,6.80
2022-09-15T14:40:36.727Z,6.40
2022-09-15T14:43:26.905Z,6.70
2022-09-15T14:46:10.166Z,6.70
2022-09-15T14:48:41.637Z,6.40
2022-09-15T14:51:20.544Z,5.80
2022-09-15T14:53:56.074Z,6.00
2022-09-15T14:56:31.440Z,5.90
2022-09-15T14:59:08.417Z,6.30
2022-09-15T15:01:58.749Z,6.00
2022-09-15T15:04:36.685Z,5.30
2022-09-15T15:07:17.011Z,5.70
2022-09-15T15:09:51.481Z,6.70
2022-09-15T15:12:27.966Z,7.20
2022-09-15T15:15:00.796Z,6.90
2022-09-15T15:17:41.911Z,6.50
2022-09-15T15:20:23.045Z,6.50
2022-09-15T15:23:15.366Z,10.30
2022-09-15T15:25:47.827Z,9.40
2022-09-15T15:28:33.861Z,9.20
2022-09-15T15:31:13.975Z,12.40
2022-09-15T15:33:50.927Z,16.20
2022-09-15T15:36:24.984Z,13.10
2022-09-15T15:39:09.428Z,8.60
2022-09-15T15:41:43.082Z,10.70
2022-09-15T15:44:29.003Z,9.10
2022-09-15T15:47:03.337Z,9.50
2022-09-15T15:49:36.788Z,10.40
2022-09-15T15:52:10.752Z,9.50
2022-09-15T15:54:43.207Z,10.30
2022-09-15T15:57:28.163Z,9.60
2022-09-15T16:00:00.939Z,8.90
2022-09-15T16:02:33.142Z,9.80
2022-09-15T16:05:05.184Z,9.60
2022-09-15T16:07:37.073Z,11.00
2022-09-15T16:10:16.233Z,10.70
2022-09-15T16:12:48.164Z,10.90
2022-09-15T16:15:22.266Z,8.80
2022-09-15T16:17:54.001Z,7.40
2022-09-15T16:20:25.759Z,7.80
2022-09-15T16:22:57.690Z,7.10
2022-09-15T16:25:39.446Z,6.60
2022-09-15T16:28:12.203Z,6.50
2022-09-15T16:30:44.390Z,6.50
2022-09-15T16:33:18.004Z,7.10
2022-09-15T16:35:55.565Z,6.00
2022-09-15T16:38:28.876Z,6.10
2022-09-15T16:41:01.128Z,5.40
2022-09-15T16:43:33.482Z,5.70
2022-09-15T16:46:06.320Z,6.30
2022-09-15T16:48:37.956Z,6.10
2022-09-15T16:51:31.763Z,5.50
2022-09-15T16:54:03.952Z,6.30
2022-09-15T16:56:35.502Z,4.70
2022-09-15T16:59:07.430Z,5.40
2022-09-15T17:01:39.792Z,5.50
2022-09-15T17:04:16.444Z,6.00
2022-09-15T17:06:48.177Z,5.80
2022-09-15T17:09:20.566Z,5.40
2022-09-15T17:11:52.028Z,5.70
2022-09-15T17:14:23.657Z,7.90
2022-09-15T17:16:55.568Z,6.90
2022-09-15T17:19:27.147Z,6.50
2022-09-15T17:21:59.026Z,6.00
2022-09-15T17:24:30.698Z,5.80
2022-09-15T17:27:02.245Z,5.50
2022-09-15T17:29:33.714Z,5.50
2022-09-15T17:32:06.062Z,5.30
2022-09-15T17:34:39.192Z,5.70
2022-09-15T17:37:11.166Z,5.50
2022-09-15T17:39:43.285Z,8.50
2022-09-15T17:42:15.469Z,8.10
2022-09-15T17:44:46.973Z,7.30
2022-09-15T17:47:20.618Z,7.70
2022-09-15T17:49:54.147Z,8.50
2022-09-15T17:52:26.185Z,5.60
2022-09-15T17:54:58.469Z,7.00
2022-09-15T17:57:30.522Z,7.40
2022-09-15T18:00:02.338Z,6.90
2022-09-15T18:02:36.749Z,6.20
2022-09-15T18:05:17.642Z,6.90
2022-09-15T18:07:49.888Z,6.70
2022-09-15T18:10:22.518Z,6.60
2022-09-15T18:12:55.848Z,7.50
2022-09-15T18:15:31.602Z,7.20
2022-09-15T18:18:08.693Z,7.20
2022-09-15T18:20:41.628Z,8.00
2022-09-15T18:23:16.765Z,7.60
2022-09-15T18:25:49.262Z,8.30
2022-09-15T18:28:21.606Z,8.20
2022-09-15T18:30:56.688Z,8.40
2022-09-15T18:33:29.377Z,7.60
2022-09-15T18:36:01.538Z,7.60
2022-09-15T18:38:33.617Z,7.40
2022-09-15T18:41:10.135Z,7.00
2022-09-15T18:43:41.730Z,8.00
2022-09-15T18:46:13.280Z,8.00
2022-09-15T18:48:44.878Z,7.70
2022-09-15T18:51:24.090Z,7.00
2022-09-15T18:54:01.404Z,7.70
2022-09-15T18:56:33.068Z,8.30
2022-09-15T18:59:04.788Z,7.60
2022-09-15T19:01:37.008Z,7.30
2022-09-15T19:05:26.023Z,7.00
2022-09-15T19:08:19.552Z,6.60
2022-09-15T19:10:58.835Z,8.10
2022-09-15T19:13:31.573Z,7.80
2022-09-15T19:16:07.375Z,8.00
2022-09-15T19:18:39.899Z,8.10
2022-09-15T19:21:15.409Z,6.90
2022-09-15T19:23:47.671Z,8.40
2022-09-15T19:26:19.970Z,8.00
2022-09-15T19:28:54.590Z,7.70
2022-09-15T19:31:27.680Z,7.80
2022-09-15T19:33:59.691Z,8.20
2022-09-15T19:36:32.291Z,7.70
2022-09-15T19:39:04.332Z,8.80
2022-09-15T19:41:36.430Z,8.60
2022-09-15T19:44:10.668Z,9.40
2022-09-15T19:46:43.366Z,9.00
2022-09-15T19:49:16.443Z,8.90
2022-09-15T19:51:52.980Z,9.40
2022-09-15T19:54:26.210Z,10.30
2022-09-15T19:56:58.528Z,10.20
2022-09-15T19:59:31.883Z,9.70
2022-09-15T20:02:03.790Z,9.90
2022-09-15T20:04:40.874Z,10.80
2022-09-15T20:07:12.966Z,9.70
2022-09-15T20:09:45.263Z,11.00
2022-09-15T20:12:17.602Z,11.50
2022-09-15T20:14:49.419Z,11.10
2022-09-15T20:17:21.660Z,10.10
2022-09-15T20:19:53.758Z,10.80
2022-09-15T20:22:25.885Z,11.10
2022-09-15T20:24:57.768Z,12.40
2022-09-15T20:27:30.427Z,10.50
2022-09-15T20:30:02.742Z,10.50
2022-09-15T20:32:34.597Z,10.70
2022-09-15T20:35:08.873Z,10.30
2022-09-15T20:37:40.891Z,10.60
2022-09-15T20:40:14.606Z,11.40
2022-09-15T20:42:47.634Z,11.60
2022-09-15T20:45:19.433Z,11.40
2022-09-15T20:47:51.138Z,10.50
2022-09-15T20:50:22.858Z,10.40
2022-09-15T20:52:54.589Z,10.50
2022-09-15T20:55:26.466Z,12.30
2022-09-15T20:57:58.186Z,12.10
2022-09-15T21:00:33.751Z,14.10
2022-09-15T21:03:05.913Z,10.00
2022-09-15T21:05:37.605Z,11.80
2022-09-15T21:08:10.857Z,10.30
2022-09-15T21:10:46.884Z,10.90
2022-09-15T21:13:19.133Z,11.40
2022-09-15T21:15:57.903Z,10.90
2022-09-15T21:18:32.598Z,11.00
2022-09-15T21:21:07.308Z,11.10
2022-09-15T21:23:41.333Z,11.20
2022-09-15T21:26:15.021Z,12.20
2022-09-15T21:28:47.238Z,11.40
2022-09-15T21:31:21.205Z,11.40
2022-09-15T21:33:54.840Z,11.40
2022-09-15T21:36:29.541Z,11.60
2022-09-15T21:39:02.862Z,12.20
2022-09-15T21:41:34.697Z,12.80
2022-09-15T21:44:06.822Z,13.10
2022-09-15T21:46:38.597Z,12.50
2022-09-15T21:49:10.738Z,13.70
2022-09-15T21:51:43.019Z,15.90
2022-09-15T21:54:17.965Z,15.10
2022-09-15T21:56:53.887Z,15.10
2022-09-15T21:59:25.823Z,14.20
2022-09-15T22:01:57.743Z,14.10
2022-09-15T22:04:29.502Z,13.30
2022-09-15T22:07:04.375Z,14.40
2022-09-15T22:09:36.103Z,14.20
2022-09-15T22:12:10.461Z,14.90
2022-09-15T22:14:42.143Z,13.80
2022-09-15T22:17:18.626Z,12.60
2022-09-15T22:19:51.146Z,13.90
2022-09-15T22:22:23.549Z,11.60
2022-09-15T22:24:55.447Z,12.20
2022-09-15T22:27:27.204Z,12.60
2022-09-15T22:29:59.058Z,12.60
2022-09-15T22:32:31.346Z,10.70
2022-09-15T22:35:03.149Z,10.40
2022-09-15T22:37:36.162Z,10.70
2022-09-15T22:40:09.638Z,10.90
2022-09-15T22:42:41.464Z,10.70
2022-09-15T22:45:13.672Z,10.20
2022-09-15T22:47:45.385Z,10.50
2022-09-15T22:50:17.692Z,9.30
2022-09-15T22:52:50.856Z,8.60
2022-09-15T22:55:22.929Z,8.40
2022-09-15T22:57:54.688Z,9.50
2022-09-15T23:00:27.176Z,8.60
2022-09-15T23:02:58.859Z,9.50
2022-09-15T23:05:30.336Z,7.90
2022-09-15T23:10:33.269Z,7.50
2022-09-15T23:13:04.734Z,8.10
2022-09-15T23:18:08.155Z,6.80
2022-09-15T23:20:40.353Z,6.90
2022-09-15T23:23:11.839Z,7.30
2022-09-15T23:28:13.235Z,6.50
2022-09-15T23:33:14.661Z,6.60
2022-09-15T23:38:16.660Z,7.70
2022-09-15T23:40:49.678Z,7.50
2022-09-15T23:43:21.139Z,7.00
2022-09-15T23:48:23.442Z,7.20
2022-09-15T23:50:55.159Z,7.10
2022-09-15T23:53:26.663Z,7.30
2022-09-15T23:55:58.231Z,7.20
2022-09-15T23:58:29.692Z,6.70
